Time;durP1;ratioP1;P1;durP2;ratioP2;P2;SDS_P1;SDS_P2;PMS_P1;PMS_P2;Temp;Humidity;BMP_temperature;BMP_pressure;BME280_temperature;BME280_humidity;BME280_pressure;Samples;Min_cycle;Max_cycle;Signal;HPM_P1;HPM_P2
2021/04/11 00:02:10;;;;;;;10.77;3.22;;;3.20;99.90;;;;;;5069151;28;20090;-84
2021/04/11 00:04:36;;;;;;;8.70;3.30;;;3.20;99.90;;;;;;5036782;28;20071;-91
2021/04/11 00:07:02;;;;;;;6.88;3.97;;;3.20;99.90;;;;;;5019016;28;20557;-86
2021/04/11 00:09:28;;;;;;;1.58;1.48;;;3.30;99.90;;;;;;5054194;28;20439;-83
2021/04/11 00:11:54;;;;;;;10.65;3.55;;;3.20;99.90;;;;;;5054782;28;20094;-85
2021/04/11 00:14:19;;;;;;;2.28;1.38;;;3.30;99.90;;;;;;5054844;28;20400;-84
2021/04/11 00:16:45;;;;;;;8.30;2.53;;;3.20;99.90;;;;;;5072426;28;20041;-83
2021/04/11 00:19:11;;;;;;;7.40;2.08;;;3.30;99.90;;;;;;5022292;28;20055;-83
2021/04/11 00:21:37;;;;;;;5.03;1.38;;;3.30;99.90;;;;;;5054834;28;20033;-89
2021/04/11 00:24:03;;;;;;;2.35;1.27;;;3.30;99.90;;;;;;5038277;28;20044;-86
2021/04/11 00:26:29;;;;;;;3.20;1.73;;;3.30;99.90;;;;;;5053814;28;20127;-83
2021/04/11 00:28:54;;;;;;;1.02;0.95;;;3.30;99.90;;;;;;5054283;28;20131;-87
2021/04/11 00:31:20;;;;;;;4.50;1.83;;;3.30;99.90;;;;;;5035796;28;20043;-83
2021/04/11 00:33:46;;;;;;;6.55;2.88;;;3.40;99.90;;;;;;5040633;28;20044;-83
2021/04/11 00:36:14;;;;;;;3.75;1.67;;;3.30;99.90;;;;;;5053256;28;20412;-83
2021/04/11 00:38:41;;;;;;;4.03;1.90;;;3.30;99.90;;;;;;5071125;28;20049;-88
2021/04/11 00:41:17;;;;;;;3.63;1.77;;;3.30;99.90;;;;;;5071608;28;20048;-84
2021/04/11 00:43:44;;;;;;;6.28;1.85;;;3.30;99.90;;;;;;5070764;28;20044;-84
2021/04/11 00:46:20;;;;;;;5.60;1.70;;;3.20;99.90;;;;;;5049785;28;20116;-83
2021/04/11 00:48:48;;;;;;;2.65;1.17;;;3.30;99.90;;;;;;5052285;28;20400;-83
2021/04/11 00:51:18;;;;;;;3.10;1.58;;;3.20;99.90;;;;;;5054413;28;20804;-82
2021/04/11 00:53:44;;;;;;;2.22;2.00;;;3.20;99.90;;;;;;5071255;28;20063;-88
2021/04/11 00:56:13;;;;;;;0.77;0.77;;;3.20;99.90;;;;;;5050335;28;20037;-82
2021/04/11 00:58:39;;;;;;;1.85;1.00;;;3.10;99.90;;;;;;5049831;28;20048;-88
2021/04/11 01:01:06;;;;;;;7.82;1.55;;;3.10;99.90;;;;;;5003652;28;20102;-83
2021/04/11 01:03:36;;;;;;;1.15;1.13;;;3.10;99.90;;;;;;5054182;28;20119;-82
2021/04/11 01:06:04;;;;;;;0.90;0.85;;;3.10;99.90;;;;;;5040036;28;20281;-83
2021/04/11 01:08:33;;;;;;;5.65;2.92;;;3.10;99.90;;;;;;5071580;28;20044;-83
2021/04/11 01:11:16;;;;;;;4.40;2.03;;;3.10;99.90;;;;;;5048754;28;20044;-82
2021/04/11 01:13:49;;;;;;;1.67;1.58;;;3.10;99.90;;;;;;5046490;28;20125;-89
2021/04/11 01:16:17;;;;;;;1.80;1.70;;;3.10;99.90;;;;;;5070819;28;20123;-83
2021/04/11 01:18:43;;;;;;;3.92;1.38;;;3.10;99.90;;;;;;5051794;28;20178;-87
2021/04/11 01:21:20;;;;;;;4.00;3.05;;;3.10;99.90;;;;;;5051862;28;20039;-82
2021/04/11 01:24:13;;;;;;;18.13;2.78;;;3.10;99.90;;;;;;5069838;28;20120;-83
2021/04/11 01:26:42;;;;;;;8.65;2.00;;;3.10;99.90;;;;;;5057904;28;20098;-82
2021/04/11 01:29:09;;;;;;;2.75;2.17;;;3.20;99.90;;;;;;5052694;28;20037;-82
2021/04/11 01:31:35;;;;;;;10.38;3.00;;;3.10;99.90;;;;;;5070074;28;20044;-83
2021/04/11 01:34:02;;;;;;;3.88;1.65;;;3.10;99.90;;;;;;5040050;28;20048;-81
2021/04/11 01:36:30;;;;;;;4.15;2.33;;;3.10;99.90;;;;;;5050932;28;20036;-82
2021/04/11 01:39:02;;;;;;;1.33;1.23;;;3.20;99.90;;;;;;5069994;28;20044;-82
2021/04/11 01:41:31;;;;;;;4.75;2.03;;;3.20;99.90;;;;;;5070201;28;20051;-82
2021/04/11 01:43:58;;;;;;;3.28;1.77;;;3.20;99.90;;;;;;5069281;28;20127;-82
2021/04/11 01:46:25;;;;;;;1.30;1.20;;;3.20;99.90;;;;;;5070803;28;20127;-83
2021/04/11 01:48:52;;;;;;;5.90;1.15;;;3.20;99.90;;;;;;5069793;28;20460;-82
2021/04/11 01:51:21;;;;;;;4.97;1.55;;;3.20;99.90;;;;;;5070069;28;20110;-83
2021/04/11 01:53:48;;;;;;;2.45;1.23;;;3.20;99.90;;;;;;5052724;28;20064;-85
2021/04/11 01:56:18;;;;;;;2.00;1.38;;;3.20;99.90;;;;;;5070959;28;20044;-82
2021/04/11 01:58:44;;;;;;;7.53;1.80;;;3.30;99.90;;;;;;5070274;28;20051;-88
2021/04/11 02:01:13;;;;;;;1.08;0.95;;;3.20;99.90;;;;;;5052795;28;20477;-82
2021/04/11 02:03:39;;;;;;;5.15;1.60;;;3.20;99.90;;;;;;5051211;28;20060;-83
2021/04/11 02:06:07;;;;;;;5.88;1.23;;;3.10;99.90;;;;;;5042478;28;20068;-82
2021/04/11 02:08:36;;;;;;;3.80;1.25;;;3.20;99.90;;;;;;5052606;28;20072;-82
2021/04/11 02:11:04;;;;;;;6.63;1.27;;;3.20;99.90;;;;;;5035179;28;20054;-86
2021/04/11 02:13:33;;;;;;;2.80;0.85;;;3.20;99.90;;;;;;5069269;28;20564;-84
2021/04/11 02:16:01;;;;;;;4.38;1.58;;;3.20;99.90;;;;;;5066026;28;20543;-82
2021/04/11 02:18:30;;;;;;;2.67;0.60;;;3.20;99.90;;;;;;5041598;28;20067;-82
2021/04/11 02:20:58;;;;;;;1.75;1.05;;;3.20;99.90;;;;;;5051384;28;20123;-81
2021/04/11 02:23:25;;;;;;;3.03;1.30;;;3.20;99.90;;;;;;5069342;28;20117;-81
2021/04/11 02:25:53;;;;;;;4.30;1.55;;;3.10;99.90;;;;;;5029632;28;20071;-82
2021/04/11 02:28:28;;;;;;;4.43;1.30;;;3.10;99.90;;;;;;5018073;28;20037;-81
2021/04/11 02:31:18;;;;;;;10.07;2.45;;;3.10;99.90;;;;;;5065019;28;20119;-82
2021/04/11 02:33:52;;;;;;;4.18;1.48;;;3.20;99.90;;;;;;5028490;28;20059;-81
2021/04/11 02:36:20;;;;;;;2.08;1.55;;;3.10;99.90;;;;;;5046429;28;20254;-82
2021/04/11 02:38:50;;;;;;;1.02;0.95;;;3.10;99.90;;;;;;5048392;28;20052;-87
2021/04/11 02:41:17;;;;;;;2.58;1.35;;;3.10;99.90;;;;;;5054484;28;20043;-82
2021/04/11 02:43:43;;;;;;;4.35;1.15;;;3.00;99.90;;;;;;5054813;28;20044;-81
2021/04/11 02:46:12;;;;;;;3.08;1.00;;;3.10;99.90;;;;;;5064863;28;20086;-82
2021/04/11 02:48:38;;;;;;;1.48;1.02;;;3.10;99.90;;;;;;5058879;28;20048;-82
2021/04/11 02:51:05;;;;;;;6.00;2.20;;;3.10;99.90;;;;;;5037197;28;20044;-81
2021/04/11 02:53:33;;;;;;;2.35;1.45;;;3.10;99.90;;;;;;5054778;28;20056;-82
2021/04/11 02:56:00;;;;;;;4.38;2.35;;;3.10;99.90;;;;;;5071554;28;20052;-81
2021/04/11 02:58:27;;;;;;;1.60;1.27;;;3.10;99.90;;;;;;5072499;28;20056;-84
2021/04/11 03:01:02;;;;;;;2.47;1.25;;;3.10;99.90;;;;;;5054115;28;20040;-81
2021/04/11 03:03:28;;;;;;;3.13;2.28;;;3.00;99.90;;;;;;5072235;28;20128;-82
2021/04/11 03:05:58;;;;;;;6.90;1.63;;;3.10;99.90;;;;;;5071836;28;20106;-84
2021/04/11 03:08:30;;;;;;;2.30;1.75;;;3.20;99.90;;;;;;5071344;28;20044;-82
2021/04/11 03:11:14;;;;;;;3.78;1.83;;;3.10;99.90;;;;;;5051294;28;20067;-81
2021/04/11 03:13:41;;;;;;;6.28;1.95;;;3.10;99.90;;;;;;5073304;28;20090;-82
2021/04/11 03:16:07;;;;;;;4.78;1.48;;;3.20;99.90;;;;;;5037134;28;20040;-82
2021/04/11 03:18:33;;;;;;;4.47;1.05;;;3.20;99.90;;;;;;5054583;28;20051;-81
2021/04/11 03:21:00;;;;;;;3.00;1.33;;;3.20;99.90;;;;;;5053751;28;20043;-82
2021/04/11 03:23:26;;;;;;;2.15;1.23;;;3.20;99.90;;;;;;5054899;28;20476;-82
2021/04/11 03:26:25;;;;;;;2.25;0.90;;;3.20;99.90;;;;;;5049348;28;20037;-86
2021/04/11 03:29:20;;;;;;;1.55;1.30;;;3.20;99.90;;;;;;5038935;28;20055;-87
2021/04/11 03:31:50;;;;;;;6.60;2.00;;;3.20;99.90;;;;;;5064338;28;20048;-82
2021/04/11 03:34:18;;;;;;;4.85;2.50;;;3.20;99.90;;;;;;5071465;28;20041;-82
2021/04/11 03:36:44;;;;;;;7.63;1.95;;;3.20;99.90;;;;;;5068522;28;20117;-81
2021/04/11 03:39:12;;;;;;;5.93;1.88;;;3.20;99.90;;;;;;5072585;28;20477;-81
2021/04/11 03:41:39;;;;;;;5.47;2.53;;;3.10;99.90;;;;;;5037445;28;20037;-82
2021/04/11 03:44:13;;;;;;;3.75;1.23;;;3.10;99.90;;;;;;5054738;28;20460;-82
2021/04/11 03:46:50;;;;;;;5.20;1.98;;;3.10;99.90;;;;;;5072929;28;20520;-83
2021/04/11 03:49:24;;;;;;;3.03;1.58;;;3.10;99.90;;;;;;5043101;28;20045;-83
2021/04/11 03:51:54;;;;;;;9.65;1.90;;;3.10;99.90;;;;;;5053583;28;20068;-87
2021/04/11 03:54:27;;;;;;;3.75;1.25;;;3.10;99.90;;;;;;5055611;28;20116;-83
2021/04/11 03:57:07;;;;;;;3.42;1.13;;;3.10;99.90;;;;;;5051083;28;20112;-88
2021/04/11 03:59:37;;;;;;;1.52;0.77;;;3.10;99.90;;;;;;5052904;28;20041;-82
2021/04/11 04:02:05;;;;;;;;;;;3.10;99.90;;;;;;5067208;28;20064;-82
2021/04/11 04:04:33;;;;;;;3.85;1.63;;;3.10;99.90;;;;;;5064196;28;19920;-82
2021/04/11 04:07:12;;;;;;;3.63;1.48;;;3.10;99.90;;;;;;5068967;28;20378;-81
2021/04/11 04:09:39;;;;;;;1.20;1.10;;;3.10;99.90;;;;;;5046474;28;20045;-83
2021/04/11 04:12:21;;;;;;;6.18;1.73;;;3.10;99.90;;;;;;5054612;28;20090;-82
2021/04/11 04:15:24;;;;;;;5.43;1.33;;;3.10;99.90;;;;;;5039001;28;20033;-82
2021/04/11 04:18:16;;;;;;;1.40;1.00;;;3.10;99.90;;;;;;5054151;28;20056;-82
2021/04/11 04:21:23;;;;;;;6.35;1.58;;;3.20;99.90;;;;;;5055416;28;20052;-83
2021/04/11 04:24:12;;;;;;;5.85;0.93;;;3.10;99.90;;;;;;5054926;28;20040;-83
2021/04/11 04:26:57;;;;;;;4.00;2.20;;;3.10;99.90;;;;;;5060022;28;20445;-83
2021/04/11 04:29:29;;;;;;;12.40;2.70;;;3.20;99.90;;;;;;5054602;28;20094;-82
2021/04/11 04:32:26;;;;;;;2.67;1.33;;;3.20;99.90;;;;;;5053572;28;20460;-87
2021/04/11 04:35:22;;;;;;;6.43;1.23;;;3.10;99.90;;;;;;5053339;28;20108;-82
2021/04/11 04:38:30;;;;;;;6.35;2.05;;;3.20;99.90;;;;;;5053557;28;20048;-82
2021/04/11 04:41:38;;;;;;;8.35;2.47;;;3.20;99.90;;;;;;5046172;28;20079;-87
2021/04/11 04:44:17;;;;;;;5.90;1.38;;;3.20;99.90;;;;;;5027341;28;20407;-81
2021/04/11 04:47:08;;;;;;;7.18;2.20;;;3.20;99.90;;;;;;5053575;28;20060;-83
2021/04/11 04:49:43;;;;;;;11.32;1.67;;;3.20;99.90;;;;;;5053888;28;20040;-82
2021/04/11 04:52:18;;;;;;;13.32;1.85;;;3.20;99.90;;;;;;5071202;28;20494;-81
2021/04/11 04:54:53;;;;;;;9.43;1.80;;;3.20;99.90;;;;;;5039544;28;20054;-82
2021/04/11 04:57:25;;;;;;;7.80;1.80;;;3.20;99.90;;;;;;5067336;28;20037;-82
2021/04/11 04:59:58;;;;;;;6.32;1.08;;;3.20;99.90;;;;;;5070912;28;20055;-82
2021/04/11 05:02:30;;;;;;;1.20;1.02;;;3.20;99.90;;;;;;5071263;28;20044;-82
2021/04/11 05:05:00;;;;;;;4.40;0.73;;;3.20;99.90;;;;;;5054533;28;20040;-87
2021/04/11 05:07:30;;;;;;;2.67;1.00;;;3.20;99.90;;;;;;5054183;28;20048;-82
2021/04/11 05:10:07;;;;;;;2.42;0.90;;;3.30;99.90;;;;;;5071678;28;20283;-84
2021/04/11 05:12:45;;;;;;;3.00;0.65;;;3.20;99.90;;;;;;5036578;28;20052;-82
2021/04/11 05:15:16;;;;;;;1.73;0.70;;;3.20;99.90;;;;;;5071314;28;20037;-82
2021/04/11 05:17:56;;;;;;;2.45;0.88;;;3.20;99.90;;;;;;5053387;28;20040;-84
2021/04/11 05:20:29;;;;;;;5.43;1.35;;;3.20;99.90;;;;;;5070931;28;20045;-83
2021/04/11 05:23:23;;;;;;;0.60;0.57;;;3.20;99.90;;;;;;5070931;28;20059;-81
2021/04/11 05:26:13;;;;;;;0.52;0.32;;;3.20;99.90;;;;;;5070226;28;20052;-82
2021/04/11 05:29:09;;;;;;;0.85;0.55;;;3.20;99.90;;;;;;5043169;28;20047;-82
2021/04/11 05:31:37;;;;;;;0.80;0.80;;;3.20;99.90;;;;;;5051962;28;20067;-81
2021/04/11 05:34:09;;;;;;;3.80;1.05;;;3.20;99.90;;;;;;5070129;28;20111;-86
2021/04/11 05:36:44;;;;;;;7.53;1.65;;;3.20;99.90;;;;;;5070325;28;20050;-82
2021/04/11 05:39:14;;;;;;;6.10;0.70;;;3.30;99.90;;;;;;5069940;28;20060;-81
2021/04/11 05:41:58;;;;;;;1.17;0.80;;;3.30;99.90;;;;;;5070251;28;20037;-81
2021/04/11 05:44:45;;;;;;;4.38;0.77;;;3.30;99.90;;;;;;5069778;28;20496;-82
2021/04/11 05:47:24;;;;;;;0.40;0.40;;;3.30;99.90;;;;;;5045721;28;20048;-82
2021/04/11 05:49:56;;;;;;;2.60;0.57;;;3.30;99.90;;;;;;5035276;28;20045;-84
2021/04/11 05:52:43;;;;;;;2.03;0.70;;;3.20;99.90;;;;;;5049652;28;20627;-83
2021/04/11 05:55:11;;;;;;;4.93;1.30;;;3.20;99.90;;;;;;5031705;28;20087;-82
2021/04/11 05:58:00;;;;;;;4.63;0.95;;;3.20;99.90;;;;;;5032624;28;20440;-82
2021/04/11 06:00:47;;;;;;;0.35;0.35;;;3.20;99.90;;;;;;5049859;28;20053;-83
2021/04/11 06:03:17;;;;;;;0.80;0.75;;;3.30;99.90;;;;;;5043397;28;20127;-82
2021/04/11 06:06:00;;;;;;;4.22;1.20;;;3.30;99.90;;;;;;5042312;28;20473;-82
2021/04/11 06:09:11;;;;;;;1.40;0.25;;;3.20;99.90;;;;;;5038830;28;20535;-83
2021/04/11 06:11:45;;;;;;;2.53;0.63;;;3.20;99.90;;;;;;5040671;28;20052;-83
2021/04/11 06:14:21;;;;;;;0.85;0.32;;;3.20;99.90;;;;;;5049986;28;20196;-85
2021/04/11 06:16:50;;;;;;;1.63;0.30;;;3.20;99.90;;;;;;5032717;28;20049;-83
2021/04/11 06:19:17;;;;;;;0.70;0.70;;;3.20;99.90;;;;;;5017054;28;20048;-82
2021/04/11 06:21:52;;;;;;;0.57;0.30;;;3.20;99.90;;;;;;5050355;28;20049;-87
2021/04/11 06:24:48;;;;;;;3.78;0.63;;;3.20;99.90;;;;;;5032351;28;20041;-82
2021/04/11 06:27:29;;;;;;;4.03;0.63;;;3.20;99.90;;;;;;5048226;28;20060;-82
2021/04/11 06:30:01;;;;;;;2.42;0.13;;;3.20;99.90;;;;;;5050616;28;20119;-83
2021/04/11 06:32:34;;;;;;;3.30;0.65;;;3.20;99.90;;;;;;5050515;28;20072;-83
2021/04/11 06:35:05;;;;;;;0.75;0.30;;;3.20;99.90;;;;;;5037133;28;20041;-82
2021/04/11 06:37:32;;;;;;;;;;;3.20;99.90;;;;;;5046501;28;20099;-84
2021/04/11 06:40:01;;;;;;;1.58;0.50;;;3.20;99.90;;;;;;5028076;28;20011;-84
2021/04/11 06:42:29;;;;;;;0.40;0.22;;;3.10;99.90;;;;;;5046058;28;20473;-84
2021/04/11 06:45:17;;;;;;;0.55;0.20;;;3.20;99.90;;;;;;5041996;28;20041;-82
2021/04/11 06:47:55;;;;;;;5.13;0.77;;;3.20;99.90;;;;;;5013488;28;20060;-83
2021/04/11 06:51:07;;;;;;;1.58;0.35;;;3.20;99.90;;;;;;5030495;28;20056;-83
2021/04/11 06:53:45;;;;;;;1.23;0.40;;;3.20;99.90;;;;;;5062586;28;20051;-81
2021/04/11 06:56:42;;;;;;;6.63;0.80;;;3.20;99.90;;;;;;5060368;28;20033;-82
2021/04/11 06:59:24;;;;;;;5.60;0.65;;;3.20;99.90;;;;;;5046897;28;20051;-88
2021/04/11 07:02:08;;;;;;;2.60;0.40;;;3.30;99.90;;;;;;5048374;28;20045;-82
2021/04/11 07:04:40;;;;;;;0.73;0.30;;;3.30;99.90;;;;;;5063517;28;20123;-85
2021/04/11 07:07:23;;;;;;;8.13;1.42;;;3.30;99.90;;;;;;5048746;28;20393;-86
2021/04/11 07:10:14;;;;;;;0.75;0.55;;;3.30;99.90;;;;;;5065295;28;20090;-82
2021/04/11 07:13:04;;;;;;;4.00;0.70;;;3.40;99.90;;;;;;5067023;28;20036;-80
2021/04/11 07:15:34;;;;;;;10.90;0.70;;;3.40;99.90;;;;;;5064660;28;20084;-82
2021/04/11 07:18:21;;;;;;;13.50;0.90;;;3.50;99.90;;;;;;5063784;28;20060;-83
2021/04/11 07:21:03;;;;;;;4.55;0.38;;;3.50;99.90;;;;;;5049967;28;20287;-83
2021/04/11 07:23:50;;;;;;;2.35;0.65;;;3.50;99.90;;;;;;5045730;28;20064;-83
2021/04/11 07:26:34;;;;;;;5.53;0.73;;;3.60;99.90;;;;;;5061889;28;20040;-84
2021/04/11 07:29:09;;;;;;;4.05;1.75;;;3.60;99.90;;;;;;5063282;28;20064;-84
2021/04/11 07:31:54;;;;;;;0.73;0.38;;;3.70;99.90;;;;;;5051679;28;20481;-84
2021/04/11 07:34:57;;;;;;;3.63;0.60;;;3.60;99.90;;;;;;5051886;28;20081;-83
2021/04/11 07:37:40;;;;;;;11.65;0.50;;;3.60;99.90;;;;;;5069669;28;20044;-83
2021/04/11 07:40:27;;;;;;;5.75;0.98;;;3.60;99.90;;;;;;5037916;28;20033;-83
2021/04/11 07:43:01;;;;;;;6.38;0.95;;;3.60;99.90;;;;;;5049057;28;20055;-83
2021/04/11 07:46:01;;;;;;;8.60;0.63;;;3.70;99.90;;;;;;5067140;28;20045;-84
2021/04/11 07:49:10;;;;;;;1.67;0.45;;;3.70;99.90;;;;;;5065173;28;20044;-83
2021/04/11 07:52:01;;;;;;;5.03;1.20;;;3.70;99.90;;;;;;5052065;28;20094;-83
2021/04/11 07:54:52;;;;;;;4.10;0.65;;;3.80;99.90;;;;;;5051363;28;20483;-82
2021/04/11 07:57:38;;;;;;;6.03;0.50;;;3.70;99.90;;;;;;5041562;28;20032;-84
2021/04/11 08:00:14;;;;;;;6.07;0.93;;;3.80;99.90;;;;;;5051314;28;20374;-85
2021/04/11 08:03:18;;;;;;;5.75;1.08;;;3.80;99.90;;;;;;5053585;28;20048;-84
2021/04/11 08:05:57;;;;;;;6.20;0.90;;;3.80;99.90;;;;;;5061915;28;20051;-84
2021/04/11 08:08:56;;;;;;;1.20;0.20;;;3.80;99.90;;;;;;5067110;28;20473;-85
2021/04/11 08:11:59;;;;;;;1.25;0.50;;;3.80;99.90;;;;;;5049563;28;20041;-84
2021/04/11 08:14:53;;;;;;;4.43;0.40;;;3.90;99.90;;;;;;5052886;28;20536;-84
2021/04/11 08:18:03;;;;;;;9.10;1.40;;;4.00;99.90;;;;;;5047041;28;20047;-85
2021/04/11 08:20:57;;;;;;;4.53;0.63;;;4.00;99.90;;;;;;5022454;28;20128;-84
2021/04/11 08:23:41;;;;;;;6.43;0.90;;;4.00;99.90;;;;;;5052589;28;20041;-87
2021/04/11 08:26:29;;;;;;;2.95;0.93;;;4.10;99.90;;;;;;5044545;28;20048;-84
2021/04/11 08:29:27;;;;;;;1.27;0.70;;;4.10;99.90;;;;;;5061270;28;20037;-84
2021/04/11 08:32:13;;;;;;;9.93;0.70;;;4.10;99.90;;;;;;5051878;28;20500;-84
2021/04/11 08:35:10;;;;;;;3.47;0.50;;;4.10;99.90;;;;;;5048579;28;20033;-84
2021/04/11 08:37:48;;;;;;;4.22;0.85;;;4.10;99.90;;;;;;5048972;28;20110;-84
2021/04/11 08:40:25;;;;;;;4.72;0.98;;;4.20;99.90;;;;;;5068574;28;20040;-87
2021/04/11 08:43:19;;;;;;;6.40;0.85;;;4.20;99.90;;;;;;5069961;28;20041;-85
2021/04/11 08:46:28;;;;;;;6.25;1.75;;;4.30;99.90;;;;;;5049826;28;20488;-84
2021/04/11 08:49:14;;;;;;;6.68;0.70;;;4.40;99.90;;;;;;4968813;28;20113;-85
2021/04/11 08:51:56;;;;;;;4.88;0.90;;;4.30;99.90;;;;;;5065864;28;20083;-85
2021/04/11 08:54:44;;;;;;;7.63;1.50;;;4.30;99.90;;;;;;5069331;28;20506;-85
2021/04/11 08:57:17;;;;;;;2.65;0.43;;;4.30;99.90;;;;;;5049701;28;20055;-85
2021/04/11 09:00:04;;;;;;;10.60;1.85;;;4.40;99.90;;;;;;5066551;28;20056;-87
2021/04/11 09:03:01;;;;;;;4.60;0.50;;;4.50;99.90;;;;;;5045730;28;20044;-85
2021/04/11 09:06:00;;;;;;;1.30;0.40;;;4.60;99.90;;;;;;5067355;28;20040;-87
2021/04/11 09:08:30;;;;;;;1.40;0.45;;;4.70;99.90;;;;;;5034343;28;20146;-84
2021/04/11 09:11:22;;;;;;;4.22;0.60;;;4.80;99.90;;;;;;5050433;28;20048;-85
2021/04/11 09:13:59;;;;;;;3.65;0.80;;;4.80;99.90;;;;;;5042208;28;20135;-86
2021/04/11 09:16:44;;;;;;;3.72;0.60;;;4.90;99.90;;;;;;5031714;28;20076;-86
2021/04/11 09:19:28;;;;;;;7.47;0.47;;;4.90;99.90;;;;;;5040863;28;20051;-85
2021/04/11 09:22:14;;;;;;;9.32;1.30;;;5.00;99.90;;;;;;5037616;28;20040;-87
2021/04/11 09:25:02;;;;;;;2.60;0.60;;;5.00;99.90;;;;;;5049699;28;20591;-85
2021/04/11 09:27:46;;;;;;;1.30;0.40;;;5.10;99.90;;;;;;5051093;28;20044;-86
2021/04/11 09:30:29;;;;;;;0.40;0.40;;;5.20;99.90;;;;;;5064968;28;20206;-89
2021/04/11 09:33:15;;;;;;;2.92;0.50;;;5.20;99.90;;;;;;5038612;28;20041;-88
2021/04/11 09:35:47;;;;;;;4.47;0.60;;;5.10;99.90;;;;;;5032343;28;20697;-87
2021/04/11 09:38:36;;;;;;;6.50;1.00;;;5.10;99.90;;;;;;5061899;28;20039;-87
2021/04/11 09:41:26;;;;;;;6.78;0.95;;;5.10;99.90;;;;;;5069303;28;20044;-87
2021/04/11 09:44:05;;;;;;;0.60;0.40;;;5.20;99.90;;;;;;5040763;28;20036;-87
2021/04/11 09:47:06;;;;;;;3.97;0.70;;;5.10;99.90;;;;;;5047445;28;20074;-82
2021/04/11 09:50:10;;;;;;;1.45;0.40;;;5.00;99.90;;;;;;4986679;28;20581;-83
2021/04/11 09:53:12;;;;;;;0.35;0.20;;;5.00;99.90;;;;;;5026513;28;20056;-83
2021/04/11 09:55:45;;;;;;;5.22;0.90;;;4.90;99.90;;;;;;5030581;28;20849;-84
2021/04/11 09:58:20;;;;;;;3.35;0.90;;;4.80;99.90;;;;;;5030524;28;20041;-85
2021/04/11 10:00:55;;;;;;;6.40;0.90;;;4.90;99.90;;;;;;5044715;28;20052;-85
2021/04/11 10:04:03;;;;;;;2.15;0.73;;;4.90;99.90;;;;;;5046190;28;20473;-88
2021/04/11 10:07:08;;;;;;;2.83;0.93;;;5.10;99.90;;;;;;5030435;28;20405;-85
2021/04/11 10:10:02;;;;;;;4.22;2.15;;;5.10;99.90;;;;;;5008245;28;20049;-85
2021/04/11 10:12:43;;;;;;;4.75;0.73;;;5.20;99.90;;;;;;5029287;28;20066;-85
2021/04/11 10:15:21;;;;;;;3.97;1.00;;;5.20;99.90;;;;;;5039802;28;20068;-85
2021/04/11 10:18:12;;;;;;;4.97;0.60;;;5.10;99.90;;;;;;5029266;28;20037;-89
2021/04/11 10:20:59;;;;;;;6.88;0.75;;;5.00;99.90;;;;;;5048255;28;20037;-87
2021/04/11 10:23:44;;;;;;;1.27;0.57;;;4.90;99.90;;;;;;5011057;28;20681;-83
2021/04/11 10:26:22;;;;;;;4.93;0.88;;;4.80;99.90;;;;;;5016562;28;20119;-83
2021/04/11 10:28:59;;;;;;;4.30;0.60;;;4.90;99.90;;;;;;5032378;28;20477;-85
2021/04/11 10:32:06;;;;;;;6.78;0.85;;;4.80;99.90;;;;;;5047408;28;20073;-87
2021/04/11 10:35:08;;;;;;;3.75;1.00;;;4.80;99.90;;;;;;5037013;28;20061;-86
2021/04/11 10:37:41;;;;;;;3.08;0.63;;;4.90;99.90;;;;;;5041387;28;20041;-85
2021/04/11 10:40:43;;;;;;;8.25;0.57;;;4.90;99.90;;;;;;5021487;28;20102;-88
2021/04/11 10:43:28;;;;;;;3.30;0.45;;;4.80;99.90;;;;;;5015034;28;20052;-85
2021/04/11 10:46:00;;;;;;;5.03;1.40;;;4.80;99.90;;;;;;5021854;28;20064;-85
2021/04/11 10:48:48;;;;;;;6.40;1.20;;;4.80;99.90;;;;;;5047542;28;20077;-87
2021/04/11 10:51:48;;;;;;;4.03;0.80;;;4.80;99.90;;;;;;5037073;28;20558;-85
2021/04/11 10:54:41;;;;;;;4.37;1.13;;;4.90;99.90;;;;;;5071356;28;20040;-85
2021/04/11 10:57:35;;;;;;;5.15;1.08;;;5.00;99.90;;;;;;5049488;28;20580;-86
2021/04/11 11:00:30;;;;;;;9.43;1.55;;;5.00;99.90;;;;;;5071115;28;20416;-86
2021/04/11 11:03:01;;;;;;;0.32;0.32;;;5.10;99.90;;;;;;5066558;28;20067;-85
2021/04/11 11:05:39;;;;;;;4.40;0.60;;;5.20;99.90;;;;;;5071250;28;20040;-87
2021/04/11 11:08:38;;;;;;;9.73;1.40;;;5.30;99.90;;;;;;5064106;28;20047;-86
2021/04/11 11:11:42;;;;;;;3.03;1.13;;;5.30;99.90;;;;;;5070620;28;20474;-87
2021/04/11 11:14:14;;;;;;;7.30;1.40;;;5.30;99.90;;;;;;5071753;28;20047;-86
2021/04/11 11:16:55;;;;;;;6.35;1.20;;;5.20;99.90;;;;;;5045363;28;20123;-86
2021/04/11 11:19:36;;;;;;;4.72;0.98;;;5.10;99.90;;;;;;5071588;28;20036;-85
2021/04/11 11:22:17;;;;;;;4.03;1.13;;;5.00;99.90;;;;;;5071875;28;20078;-85
2021/04/11 11:25:04;;;;;;;8.27;0.88;;;5.00;99.90;;;;;;5044217;28;20055;-86
2021/04/11 11:27:50;;;;;;;6.53;1.00;;;5.00;99.90;;;;;;5069597;28;20711;-87
2021/04/11 11:30:38;;;;;;;2.53;0.57;;;4.90;99.90;;;;;;5060259;28;20127;-86
2021/04/11 11:33:24;;;;;;;7.90;1.05;;;4.80;99.90;;;;;;5070129;28;20377;-86
2021/04/11 11:36:13;;;;;;;7.63;0.98;;;4.90;99.90;;;;;;5045794;28;20101;-86
2021/04/11 11:39:09;;;;;;;5.03;1.65;;;4.80;99.90;;;;;;5058687;28;20282;-86
2021/04/11 11:41:53;;;;;;;7.80;1.42;;;4.80;99.90;;;;;;5039708;28;20067;-86
2021/04/11 11:44:19;;;;;;;3.38;1.00;;;4.80;99.90;;;;;;5044721;28;20056;-86
2021/04/11 11:47:06;;;;;;;8.43;1.10;;;4.80;99.90;;;;;;5050104;28;20048;-87
2021/04/11 11:49:55;;;;;;;8.43;1.40;;;4.70;99.90;;;;;;5070524;28;20048;-87
2021/04/11 11:52:36;;;;;;;10.48;1.48;;;4.60;99.90;;;;;;5053470;28;20184;-85
2021/04/11 11:55:04;;;;;;;;;;;4.70;99.90;;;;;;5071148;28;20404;-85
2021/04/11 11:57:53;;;;;;;11.93;1.40;;;4.80;99.90;;;;;;5071000;28;19920;-88
2021/04/11 12:00:30;;;;;;;4.97;1.58;;;4.90;99.90;;;;;;5070426;28;20473;-85
2021/04/11 12:03:25;;;;;;;6.00;1.10;;;4.80;99.90;;;;;;5051727;28;20127;-86
2021/04/11 12:06:32;;;;;;;6.78;1.20;;;4.70;99.90;;;;;;5051946;28;20128;-85
2021/04/11 12:09:18;;;;;;;1.70;0.73;;;4.50;99.90;;;;;;5052309;28;20437;-84
2021/04/11 12:12:14;;;;;;;7.75;1.02;;;4.50;99.90;;;;;;5069622;28;20045;-85
2021/04/11 12:14:53;;;;;;;2.33;1.00;;;4.70;99.90;;;;;;5042470;28;20500;-86
2021/04/11 12:17:30;;;;;;;9.73;1.33;;;4.80;99.90;;;;;;5070329;28;20045;-85
2021/04/11 12:20:26;;;;;;;4.38;1.05;;;4.90;99.90;;;;;;5052023;28;20048;-85
2021/04/11 12:23:04;;;;;;;8.30;1.00;;;5.00;99.90;;;;;;5068181;28;20055;-85
2021/04/11 12:25:34;;;;;;;4.97;2.05;;;5.00;99.90;;;;;;5076708;28;20041;-82
2021/04/11 12:28:16;;;;;;;6.63;1.00;;;4.90;99.90;;;;;;5035344;28;20448;-83
2021/04/11 12:30:43;;;;;;;3.45;0.50;;;4.80;99.90;;;;;;5069473;28;20050;-83
2021/04/11 12:33:12;;;;;;;3.38;0.80;;;4.70;99.90;;;;;;5035773;28;20032;-84
2021/04/11 12:36:01;;;;;;;4.05;0.80;;;4.60;99.90;;;;;;5065448;28;20158;-88
2021/04/11 12:38:44;;;;;;;4.18;1.40;;;4.70;99.90;;;;;;5066931;28;20577;-86
2021/04/11 12:41:25;;;;;;;7.68;1.67;;;4.90;99.90;;;;;;5070432;28;20048;-84
2021/04/11 12:44:09;;;;;;;3.75;0.70;;;5.10;99.90;;;;;;5059916;28;20049;-86
2021/04/11 12:46:44;;;;;;;12.05;1.38;;;5.20;99.90;;;;;;5038069;28;20045;-87
2021/04/11 12:49:29;;;;;;;6.80;1.05;;;5.40;99.90;;;;;;5051475;28;20040;-84
2021/04/11 12:52:04;;;;;;;5.40;0.70;;;5.70;99.90;;;;;;5046766;28;20051;-85
2021/04/11 12:54:40;;;;;;;2.45;0.82;;;5.90;99.90;;;;;;5040632;28;20064;-85
2021/04/11 12:57:08;;;;;;;5.03;0.93;;;6.20;99.90;;;;;;5048236;28;20097;-83
2021/04/11 12:59:51;;;;;;;9.05;0.90;;;6.30;99.90;;;;;;5051780;28;20043;-84
2021/04/11 13:02:28;;;;;;;4.03;0.82;;;6.40;99.90;;;;;;5066443;28;20036;-84
2021/04/11 13:05:29;;;;;;;4.70;1.48;;;6.40;99.90;;;;;;5041362;28;20406;-84
2021/04/11 13:08:15;;;;;;;4.47;0.73;;;6.40;99.90;;;;;;5041989;28;20045;-85
2021/04/11 13:10:49;;;;;;;4.60;1.17;;;6.50;99.90;;;;;;5067719;28;20048;-87
2021/04/11 13:13:31;;;;;;;7.22;0.98;;;6.60;99.90;;;;;;5069644;28;20036;-84
2021/04/11 13:16:16;;;;;;;13.18;0.90;;;6.50;99.90;;;;;;5045966;28;20042;-83
2021/04/11 13:19:03;;;;;;;5.45;1.50;;;6.50;99.90;;;;;;5060693;28;20043;-87
2021/04/11 13:21:48;;;;;;;3.47;0.80;;;6.40;99.90;;;;;;5068436;28;20044;-84
2021/04/11 13:24:47;;;;;;;11.32;1.20;;;6.30;99.90;;;;;;5050741;28;20036;-84
2021/04/11 13:27:25;;;;;;;7.60;1.25;;;6.30;99.90;;;;;;4997489;28;20067;-84
2021/04/11 13:30:06;;;;;;;2.45;0.63;;;6.20;99.90;;;;;;5068503;28;20036;-84
2021/04/11 13:32:44;;;;;;;13.68;1.13;;;6.20;99.90;;;;;;5051569;28;20090;-84
2021/04/11 13:35:22;;;;;;;2.55;0.70;;;6.20;99.90;;;;;;5045470;28;20370;-84
2021/04/11 13:37:54;;;;;;;4.10;0.57;;;6.20;99.90;;;;;;5063597;28;20045;-85
2021/04/11 13:40:28;;;;;;;9.13;0.90;;;6.10;99.90;;;;;;5051517;28;20036;-85
2021/04/11 13:43:16;;;;;;;2.65;0.80;;;6.00;99.90;;;;;;5045602;28;20515;-85
2021/04/11 13:45:53;;;;;;;3.47;1.00;;;5.80;99.90;;;;;;5065773;28;20094;-89
2021/04/11 13:48:28;;;;;;;3.40;0.93;;;5.80;99.90;;;;;;5051119;28;20052;-86
2021/04/11 13:51:34;;;;;;;3.63;0.52;;;5.70;99.90;;;;;;5050270;28;20064;-86
2021/04/11 13:54:29;;;;;;;9.23;0.85;;;5.80;99.90;;;;;;5050757;28;20963;-85
2021/04/11 13:57:11;;;;;;;5.88;0.82;;;6.10;99.90;;;;;;5045174;28;20056;-85
2021/04/11 14:00:08;;;;;;;6.05;0.80;;;6.40;99.90;;;;;;5068747;28;20068;-85
2021/04/11 14:02:39;;;;;;;4.07;1.00;;;6.50;99.90;;;;;;5063787;28;20047;-85
2021/04/11 14:05:31;;;;;;;3.55;1.08;;;6.50;99.90;;;;;;5067578;28;20796;-86